Time;durP1;ratioP1;P1;durP2;ratioP2;P2;SDS_P1;SDS_P2;PMS_P1;PMS_P2;Temp;Humidity;BMP_temperature;BMP_pressure;BME280_temperature;BME280_humidity;BME280_pressure;Samples;Min_cycle;Max_cycle;Signal;HPM_P1;HPM_P2
2021/12/06 00:00:16;;;;;;;;;;;5.00;99.90;;;;;;7348265;19;115761;-80
2021/12/06 00:02:44;;;;;;;;;;;4.90;99.90;;;;;;7345164;19;109806;-81
2021/12/06 00:05:12;;;;;;;;;;;4.80;99.90;;;;;;7347217;19;111018;-80
2021/12/06 00:07:39;;;;;;;;;;;4.70;99.90;;;;;;7346093;19;110414;-80
2021/12/06 00:10:07;;;;;;;;;;;4.60;99.90;;;;;;7345192;19;111234;-80
2021/12/06 00:12:34;;;;;;;;;;;4.60;99.90;;;;;;7348136;19;110928;-81
2021/12/06 00:15:01;;;;;;;;;;;4.50;99.90;;;;;;7348116;19;115097;-81
2021/12/06 00:17:28;;;;;;;;;;;4.50;99.90;;;;;;7346388;19;111612;-80
2021/12/06 00:19:55;;;;;;;;;;;4.50;99.90;;;;;;7341914;19;112187;-80
2021/12/06 00:22:23;;;;;;;;;;;4.50;99.90;;;;;;7346191;19;109572;-80
2021/12/06 00:24:51;;;;;;;;;;;4.50;99.90;;;;;;7340796;19;110757;-80
2021/12/06 00:27:18;;;;;;;;;;;4.40;99.90;;;;;;7346447;19;111782;-81
2021/12/06 00:29:45;;;;;;;;;;;4.30;99.90;;;;;;7346352;19;109764;-80
2021/12/06 00:32:12;;;;;;;;;;;4.30;99.90;;;;;;7342128;19;110984;-79
2021/12/06 00:34:40;;;;;;;;;;;4.30;99.90;;;;;;7345875;19;112021;-80
2021/12/06 00:37:28;;;;;;;;;;;4.30;99.90;;;;;;7350649;19;109398;-80
2021/12/06 00:39:56;;;;;;;;;;;4.40;99.90;;;;;;7346294;19;111135;-81
2021/12/06 00:42:24;;;;;;;;;;;4.30;99.90;;;;;;7344291;19;109860;-80
2021/12/06 00:44:52;;;;;;;;;;;4.30;99.90;;;;;;7344133;19;110908;-80
2021/12/06 00:47:19;;;;;;;;;;;4.30;99.90;;;;;;7342505;19;112386;-80
2021/12/06 00:49:47;;;;;;;;;;;4.30;99.90;;;;;;7345243;19;109375;-80
2021/12/06 00:52:14;;;;;;;;;;;4.20;99.90;;;;;;7346528;19;110635;-80
2021/12/06 00:54:42;;;;;;;;;;;4.10;99.90;;;;;;7343796;19;112059;-80
2021/12/06 00:57:09;;;;;;;;;;;4.00;99.90;;;;;;7351389;19;109474;-80
2021/12/06 00:59:37;;;;;;;;;;;3.90;99.90;;;;;;7342459;19;112224;-80
2021/12/06 01:02:05;;;;;;;;;;;4.00;99.90;;;;;;7344948;19;109252;-80
2021/12/06 01:04:33;;;;;;;;;;;4.00;99.90;;;;;;7342404;19;111288;-80
2021/12/06 01:07:00;;;;;;;;;;;4.00;99.90;;;;;;7343738;19;112109;-80
2021/12/06 01:09:27;;;;;;;;;;;3.90;99.90;;;;;;7342006;19;109547;-80
2021/12/06 01:11:54;;;;;;;;;;;4.00;99.90;;;;;;7345482;19;111244;-80
2021/12/06 01:14:21;;;;;;;;;;;4.00;99.90;;;;;;7345618;19;112307;-80
2021/12/06 01:16:48;;;;;;;;;;;4.00;99.90;;;;;;7342169;19;110689;-80
2021/12/06 01:19:14;;;;;;;;;;;3.90;99.90;;;;;;7351842;19;110826;-80
2021/12/06 01:22:03;;;;;;;;;;;3.90;99.90;;;;;;7342339;19;109443;-80
2021/12/06 01:24:39;;;;;;;;;;;4.00;99.90;;;;;;7346210;19;109611;-80
2021/12/06 01:40:11;;;;;;;;;;;3.80;99.90;;;;;;7342994;19;113028;-81
2021/12/06 01:42:38;;;;;;;;;;;3.80;99.90;;;;;;7347940;19;110515;-80
2021/12/06 01:45:06;;;;;;;;;;;3.80;99.90;;;;;;7348333;19;110635;-80
2021/12/06 01:47:34;;;;;;;;;;;3.80;99.90;;;;;;7349057;19;115893;-80
2021/12/06 01:50:08;;;;;;;;;;;3.80;99.90;;;;;;7352411;19;109852;-80
2021/12/06 01:52:37;;;;;;;;;;;3.80;99.90;;;;;;7349480;19;110664;-80
2021/12/06 01:55:06;;;;;;;;;;;3.90;99.90;;;;;;7352478;19;111873;-79
2021/12/06 01:57:33;;;;;;;;;;;3.90;99.90;;;;;;7346551;19;110497;-80
2021/12/06 02:00:00;;;;;;;;;;;3.90;99.90;;;;;;7350979;19;110807;-79
2021/12/06 02:02:29;;;;;;;;;;;3.90;99.90;;;;;;7348347;19;112826;-79
2021/12/06 02:04:56;;;;;;;;;;;4.00;99.90;;;;;;7355390;19;109408;-80
2021/12/06 02:07:25;;;;;;;;;;;4.00;99.90;;;;;;7348925;19;112031;-80
2021/12/06 02:09:52;;;;;;;;;;;4.00;99.90;;;;;;7348510;19;110791;-80
2021/12/06 02:12:19;;;;;;;;;;;4.10;99.90;;;;;;7352584;19;110967;-79
2021/12/06 02:15:05;;;;;;;;;;;4.10;99.90;;;;;;7345257;19;111081;-80
2021/12/06 02:17:38;;;;;;;;;;;4.20;99.90;;;;;;7351100;19;111095;-80
2021/12/06 02:20:23;;;;;;;;;;;4.20;99.90;;;;;;7350157;19;109299;-80
2021/12/06 02:22:50;;;;;;;;;;;4.30;99.90;;;;;;7347405;19;110458;-80
2021/12/06 02:25:18;;;;;;;;;;;4.30;99.90;;;;;;7347303;19;111327;-81
2021/12/06 02:27:48;;;;;;;;;;;4.30;99.90;;;;;;7352425;19;111877;-80
2021/12/06 02:30:16;;;;;;;;;;;4.30;99.90;;;;;;7350496;19;110233;-81
2021/12/06 02:32:44;;;;;;;;;;;4.40;99.90;;;;;;7348281;19;113599;-81
2021/12/06 02:35:14;;;;;;;;;;;4.40;99.90;;;;;;7350468;19;115126;-80
2021/12/06 02:37:41;;;;;;;;;;;4.40;99.90;;;;;;7347617;19;109810;-81
2021/12/06 02:40:20;;;;;;;;;;;4.50;99.90;;;;;;7350103;19;110892;-81
2021/12/06 02:42:47;;;;;;;;;;;4.50;99.90;;;;;;7350533;19;114217;-81
2021/12/06 02:45:16;;;;;;;;;;;4.50;99.90;;;;;;7348488;19;110907;-79
2021/12/06 02:47:43;;;;;;;;;;;4.50;99.90;;;;;;7349265;19;111255;-81
2021/12/06 02:50:11;;;;;;;;;;;4.60;99.90;;;;;;7351716;19;111420;-80
2021/12/06 02:52:39;;;;;;;;;;;4.60;99.90;;;;;;7349430;19;110672;-80
2021/12/06 02:55:22;;;;;;;;;;;4.60;99.90;;;;;;7343156;19;110502;-81
2021/12/06 02:57:54;;;;;;;;;;;4.60;99.90;;;;;;7349091;19;109830;-80
2021/12/06 03:00:22;;;;;;;;;;;4.60;99.90;;;;;;7348455;19;109523;-79
2021/12/06 03:02:48;;;;;;;;;;;4.70;99.90;;;;;;7348082;19;110495;-81
2021/12/06 03:05:16;;;;;;;;;;;4.70;99.90;;;;;;7346634;19;109630;-79
2021/12/06 03:07:46;;;;;;;;;;;4.70;99.90;;;;;;7346023;19;112151;-80
2021/12/06 03:10:13;;;;;;;;;;;4.70;99.90;;;;;;7355732;19;115071;-80
2021/12/06 03:12:40;;;;;;;;;;;4.80;99.90;;;;;;7347095;19;111131;-80
2021/12/06 03:15:07;;;;;;;;;;;4.80;99.90;;;;;;7347996;19;110955;-79
2021/12/06 03:17:34;;;;;;;;;;;4.70;99.90;;;;;;7345649;19;109626;-79
2021/12/06 03:20:03;;;;;;;;;;;4.70;99.90;;;;;;7349490;19;110666;-81
2021/12/06 03:22:30;;;;;;;;;;;4.70;99.90;;;;;;7344502;19;110546;-81
2021/12/06 03:24:57;;;;;;;;;;;4.80;99.90;;;;;;7346989;19;110119;-81
2021/12/06 03:27:23;;;;;;;;;;;4.70;99.90;;;;;;7348649;19;111212;-80
2021/12/06 03:29:50;;;;;;;;;;;4.80;99.90;;;;;;7347126;19;112178;-81
2021/12/06 03:32:17;;;;;;;;;;;4.70;99.90;;;;;;7353743;19;109489;-81
2021/12/06 03:34:44;;;;;;;;;;;4.70;99.90;;;;;;7345314;19;112092;-80
2021/12/06 03:37:11;;;;;;;;;;;4.70;99.90;;;;;;7347332;19;109945;-81
2021/12/06 03:39:40;;;;;;;;;;;4.70;99.90;;;;;;7347036;19;110923;-80
2021/12/06 03:42:11;;;;;;;;;;;4.70;99.90;;;;;;7347695;19;112285;-81
2021/12/06 03:44:38;;;;;;;;;;;4.60;99.90;;;;;;7347215;19;109426;-79
2021/12/06 03:47:13;;;;;;;;;;;4.60;99.90;;;;;;7345302;19;111224;-81
2021/12/06 03:49:42;;;;;;;;;;;4.60;99.90;;;;;;7347294;19;112407;-80
2021/12/06 03:52:09;;;;;;;;;;;4.70;99.90;;;;;;7345241;19;109460;-81
2021/12/06 03:54:36;;;;;;;;;;;4.70;99.90;;;;;;7352387;19;110613;-81
2021/12/06 03:57:04;;;;;;;;;;;4.70;99.90;;;;;;7342272;19;109701;-80
2021/12/06 03:59:30;;;;;;;;;;;4.60;99.90;;;;;;7348077;19;111110;-81
2021/12/06 04:01:57;;;;;;;;;;;4.70;99.90;;;;;;7341628;19;111967;-81
2021/12/06 04:04:25;;;;;;;;;;;4.70;99.90;;;;;;7345262;19;111140;-80
2021/12/06 04:06:52;;;;;;;;;;;4.60;99.90;;;;;;7340389;19;110673;-79
2021/12/06 04:09:19;;;;;;;;;;;4.60;99.90;;;;;;7343572;19;111533;-80
2021/12/06 04:11:46;;;;;;;;;;;4.60;99.90;;;;;;7346588;19;109503;-80
2021/12/06 04:14:13;;;;;;;;;;;4.60;99.90;;;;;;7342746;19;112135;-81
2021/12/06 04:16:41;;;;;;;;;;;4.60;99.90;;;;;;7351343;19;111854;-80
2021/12/06 04:19:08;;;;;;;;;;;4.60;99.90;;;;;;7343974;19;114099;-79
2021/12/06 04:21:36;;;;;;;;;;;4.60;99.90;;;;;;7346245;19;111488;-80
2021/12/06 04:24:03;;;;;;;;;;;4.60;99.90;;;;;;7343430;19;111124;-81
2021/12/06 04:26:30;;;;;;;;;;;4.60;99.90;;;;;;7344644;19;109242;-79
2021/12/06 04:28:59;;;;;;;;;;;4.60;99.90;;;;;;7342927;19;113089;-80
2021/12/06 04:31:31;;;;;;;;;;;4.50;99.90;;;;;;7345044;19;110038;-80
2021/12/06 04:33:58;;;;;;;;;;;4.50;99.90;;;;;;7347156;19;111077;-81
2021/12/06 04:36:36;;;;;;;;;;;4.50;99.90;;;;;;7340472;19;112209;-81
2021/12/06 04:39:05;;;;;;;;;;;4.50;99.90;;;;;;7350800;19;109421;-80
2021/12/06 04:41:31;;;;;;;;;;;4.30;99.90;;;;;;7340317;19;113586;-80
2021/12/06 04:43:58;;;;;;;;;;;4.30;99.90;;;;;;7346323;19;110295;-79
2021/12/06 04:46:25;;;;;;;;;;;4.20;99.90;;;;;;7341846;19;110960;-79
2021/12/06 04:48:52;;;;;;;;;;;4.20;99.90;;;;;;7344038;19;111897;-80
2021/12/06 04:51:20;;;;;;;;;;;4.20;99.90;;;;;;7342365;19;111153;-80
2021/12/06 04:53:47;;;;;;;;;;;4.20;99.90;;;;;;7343665;19;111391;-80
2021/12/06 04:56:17;;;;;;;;;;;4.20;99.90;;;;;;7346262;19;111938;-79
2021/12/06 04:59:07;;;;;;;;;;;4.30;99.90;;;;;;7343693;19;110577;-80
2021/12/06 05:01:34;;;;;;;;;;;4.30;99.90;;;;;;7348276;19;109237;-81
2021/12/06 05:04:07;;;;;;;;;;;4.30;99.90;;;;;;7343508;19;111653;-79
2021/12/06 05:06:36;;;;;;;;;;;4.30;99.90;;;;;;7345013;19;111247;-80
2021/12/06 05:09:14;;;;;;;;;;;4.30;99.90;;;;;;7340978;19;112569;-81
2021/12/06 05:11:42;;;;;;;;;;;4.30;99.90;;;;;;7344647;19;110042;-80
2021/12/06 05:14:09;;;;;;;;;;;4.20;99.90;;;;;;7345562;19;111084;-81
2021/12/06 05:16:36;;;;;;;;;;;4.30;99.90;;;;;;7341160;19;112246;-80
2021/12/06 05:19:04;;;;;;;;;;;4.30;99.90;;;;;;7345064;19;110554;-80
2021/12/06 05:21:31;;;;;;;;;;;4.30;99.90;;;;;;7347197;19;109446;-79
2021/12/06 05:23:58;;;;;;;;;;;4.30;99.90;;;;;;7345570;19;109342;-79
2021/12/06 05:26:25;;;;;;;;;;;4.40;99.90;;;;;;7343112;19;111155;-79
2021/12/06 05:28:57;;;;;;;;;;;4.40;99.90;;;;;;7341719;19;110184;-79
2021/12/06 05:31:24;;;;;;;;;;;4.30;99.90;;;;;;7345787;19;110750;-79
2021/12/06 05:33:55;;;;;;;;;;;4.40;99.90;;;;;;7343410;19;109979;-79
2021/12/06 05:36:22;;;;;;;;;;;4.40;99.90;;;;;;7343710;19;112050;-79
2021/12/06 05:38:50;;;;;;;;;;;4.30;99.90;;;;;;7338207;19;109316;-80
2021/12/06 05:41:17;;;;;;;;;;;4.40;99.90;;;;;;7345224;19;110768;-81
2021/12/06 05:43:44;;;;;;;;;;;4.50;99.90;;;;;;7348422;19;112415;-80
2021/12/06 05:46:10;;;;;;;;;;;4.50;99.90;;;;;;7343250;19;111284;-81
2021/12/06 05:48:37;;;;;;;;;;;4.50;99.90;;;;;;7342813;19;112202;-82
2021/12/06 05:51:04;;;;;;;;;;;4.50;99.90;;;;;;7344858;19;110792;-81
2021/12/06 05:53:31;;;;;;;;;;;4.40;99.90;;;;;;7343730;19;113303;-79
2021/12/06 05:56:00;;;;;;;;;;;4.40;99.90;;;;;;7342868;19;115539;-82
2021/12/06 05:58:27;;;;;;;;;;;4.50;99.90;;;;;;7344147;19;109782;-79
2021/12/06 06:00:57;;;;;;;;;;;4.50;99.90;;;;;;7340932;19;111241;-80
2021/12/06 06:03:24;;;;;;;;;;;4.60;99.90;;;;;;7343493;19;113013;-82
2021/12/06 06:05:52;;;;;;;;;;;4.60;99.90;;;;;;7346661;19;110430;-80
2021/12/06 06:08:19;;;;;;;;;;;4.70;99.90;;;;;;7342975;19;111662;-81
2021/12/06 06:10:47;;;;;;;;;;;4.70;99.90;;;;;;7340060;19;110185;-79
2021/12/06 06:13:14;;;;;;;;;;;4.70;99.90;;;;;;7343271;19;111873;-80
2021/12/06 06:15:41;;;;;;;;;;;4.70;99.90;;;;;;7341546;19;110929;-80
2021/12/06 06:18:08;;;;;;;;;;;4.80;99.90;;;;;;7341322;19;110033;-82
2021/12/06 06:20:35;;;;;;;;;;;4.70;99.90;;;;;;7340016;19;113272;-80
2021/12/06 06:23:02;;;;;;;;;;;4.70;99.90;;;;;;7338594;19;112339;-79
2021/12/06 06:25:29;;;;;;;;;;;4.70;99.90;;;;;;7341091;19;109886;-79
2021/12/06 06:27:56;;;;;;;;;;;4.70;99.90;;;;;;7344177;19;110209;-81
2021/12/06 06:30:23;;;;;;;;;;;4.70;99.90;;;;;;7345277;19;109443;-81
2021/12/06 06:32:49;;;;;;;;;;;4.70;99.90;;;;;;7347454;19;113654;-80
2021/12/06 06:35:17;;;;;;;;;;;4.70;99.90;;;;;;7349039;19;114889;-80
2021/12/06 06:37:44;;;;;;;;;;;4.70;99.90;;;;;;7348939;19;109428;-80
2021/12/06 06:40:12;;;;;;;;;;;4.80;99.90;;;;;;7346656;19;110981;-80
2021/12/06 06:42:39;;;;;;;;;;;4.70;99.90;;;;;;7348166;19;112306;-79
2021/12/06 06:45:08;;;;;;;;;;;4.70;99.90;;;;;;7348164;19;109394;-81
2021/12/06 06:47:35;;;;;;;;;;;4.70;99.90;;;;;;7349195;19;113834;-79
2021/12/06 06:50:02;;;;;;;;;;;4.70;99.90;;;;;;7352499;19;112296;-81
2021/12/06 06:52:29;;;;;;;;;;;4.70;99.90;;;;;;7349059;19;109683;-80
2021/12/06 06:54:56;;;;;;;;;;;4.70;99.90;;;;;;7347155;19;112443;-80
2021/12/06 06:57:23;;;;;;;;;;;4.60;99.90;;;;;;7348495;19;109483;-81
2021/12/06 06:59:50;;;;;;;;;;;4.60;99.90;;;;;;7347811;19;111138;-80
2021/12/06 07:02:17;;;;;;;;;;;4.60;99.90;;;;;;7345619;19;112211;-80
2021/12/06 07:04:44;;;;;;;;;;;4.50;99.90;;;;;;7350466;19;109436;-81
2021/12/06 07:07:11;;;;;;;;;;;4.60;99.90;;;;;;7346950;19;111726;-80
2021/12/06 07:09:38;;;;;;;;;;;4.60;99.90;;;;;;7349749;19;112270;-80
2021/12/06 07:12:12;;;;;;;;;;;4.70;99.90;;;;;;7348850;19;109229;-79
2021/12/06 07:14:39;;;;;;;;;;;4.70;99.90;;;;;;7349848;19;110521;-81
2021/12/06 07:17:05;;;;;;;;;;;4.70;99.90;;;;;;7347420;19;109471;-81
2021/12/06 07:19:32;;;;;;;;;;;4.60;99.90;;;;;;7348080;19;110799;-81
2021/12/06 07:21:59;;;;;;;;;;;4.70;99.90;;;;;;7345636;19;115340;-80
2021/12/06 07:24:26;;;;;;;;;;;4.70;99.90;;;;;;7346589;19;110202;-80
2021/12/06 07:26:53;;;;;;;;;;;4.70;99.90;;;;;;7348986;19;111100;-80
2021/12/06 07:29:20;;;;;;;;;;;4.70;99.90;;;;;;7345589;19;112302;-81
2021/12/06 07:31:47;;;;;;;;;;;4.70;99.90;;;;;;7353025;19;109576;-81
2021/12/06 07:34:14;;;;;;;;;;;4.70;99.90;;;;;;7345705;19;112293;-81
2021/12/06 07:36:41;;;;;;;;;;;4.60;99.90;;;;;;7348740;19;109405;-79
2021/12/06 07:39:08;;;;;;;;;;;4.70;99.90;;;;;;7342714;19;111336;-81
2021/12/06 07:41:35;;;;;;;;;;;4.70;99.90;;;;;;7347424;19;111868;-80
2021/12/06 07:44:03;;;;;;;;;;;4.70;99.90;;;;;;7341871;19;110724;-81
2021/12/06 07:46:30;;;;;;;;;;;4.70;99.90;;;;;;7341032;19;111453;-81
2021/12/06 07:48:57;;;;;;;;;;;4.70;99.90;;;;;;7344945;19;115349;-81
2021/12/06 07:51:26;;;;;;;;;;;4.60;99.90;;;;;;7344391;19;110421;-80
2021/12/06 07:53:54;;;;;;;;;;;4.50;99.90;;;;;;7351695;19;110689;-80
2021/12/06 07:56:21;;;;;;;;;;;4.40;99.90;;;;;;7344491;19;109378;-80
2021/12/06 07:58:49;;;;;;;;;;;4.30;99.90;;;;;;7345951;19;113324;-80
2021/12/06 08:01:16;;;;;;;;;;;4.40;99.90;;;;;;7343661;19;114153;-80
2021/12/06 08:03:43;;;;;;;;;;;4.40;99.90;;;;;;7347572;19;109407;-81
2021/12/06 08:06:11;;;;;;;;;;;4.50;99.90;;;;;;7344843;19;109722;-80
2021/12/06 08:08:38;;;;;;;;;;;4.50;99.90;;;;;;7342927;19;112563;-80
2021/12/06 08:11:09;;;;;;;;;;;4.50;99.90;;;;;;7343237;19;109579;-80
2021/12/06 08:13:37;;;;;;;;;;;4.50;99.90;;;;;;7344833;19;110252;-80
2021/12/06 08:16:06;;;;;;;;;;;4.50;99.90;;;;;;7345981;19;112305;-80
2021/12/06 08:18:33;;;;;;;;;;;4.40;99.90;;;;;;7344546;19;113264;-80
2021/12/06 08:21:00;;;;;;;;;;;4.40;99.90;;;;;;7343132;19;111375;-80
2021/12/06 08:23:28;;;;;;;;;;;4.50;99.90;;;;;;7346943;19;110749;-80
2021/12/06 08:25:55;;;;;;;;;;;4.50;99.90;;;;;;7343119;19;111073;-80
2021/12/06 08:28:26;;;;;;;;;;;4.60;99.90;;;;;;7343983;19;111793;-80
2021/12/06 08:30:53;;;;;;;;;;;4.60;99.90;;;;;;7348137;19;109600;-80
2021/12/06 08:33:20;;;;;;;;;;;4.60;99.90;;;;;;7344158;19;111285;-81
2021/12/06 08:35:52;;;;;;;;;;;4.60;99.90;;;;;;7345568;19;114514;-80
2021/12/06 08:38:20;;;;;;;;;;;4.70;99.90;;;;;;7350101;19;109280;-80
2021/12/06 08:40:48;;;;;;;;;;;4.70;99.90;;;;;;7346663;19;111909;-82
2021/12/06 08:43:19;;;;;;;;;;;4.60;99.90;;;;;;7344617;19;109991;-80
2021/12/06 08:45:54;;;;;;;;;;;4.50;99.90;;;;;;7346774;19;110737;-81
2021/12/06 08:48:24;;;;;;;;;;;4.40;99.90;;;;;;7344314;19;111785;-82
2021/12/06 08:50:52;;;;;;;;;;;4.30;99.90;;;;;;7347361;19;109731;-82
2021/12/06 08:53:19;;;;;;;;;;;4.40;99.90;;;;;;7342797;19;111992;-82
2021/12/06 08:55:46;;;;;;;;;;;4.50;99.90;;;;;;7343601;19;112249;-81
2021/12/06 08:58:13;;;;;;;;;;;4.50;99.90;;;;;;7345811;19;111208;-82
2021/12/06 09:00:41;;;;;;;;;;;4.60;99.90;;;;;;7351024;19;111658;-82
2021/12/06 09:03:10;;;;;;;;;;;4.60;99.90;;;;;;7345149;19;110639;-81
2021/12/06 09:05:41;;;;;;;;;;;4.60;99.90;;;;;;7344921;19;113886;-81
2021/12/06 09:08:08;;;;;;;;;;;4.60;99.90;;;;;;7340401;19;114474;-80
2021/12/06 09:10:41;;;;;;;;;;;4.60;99.90;;;;;;7344886;19;109905;-84
2021/12/06 09:13:08;;;;;;;;;;;4.70;99.90;;;;;;7342623;19;111034;-79
2021/12/06 09:15:35;;;;;;;;;;;4.70;99.90;;;;;;7342365;19;111789;-81
2021/12/06 09:18:03;;;;;;;;;;;4.70;99.90;;;;;;7344615;19;109632;-81
2021/12/06 09:20:32;;;;;;;;;;;4.70;99.90;;;;;;7347705;19;111128;-82
2021/12/06 09:22:59;;;;;;;;;;;4.70;99.90;;;;;;7344719;19;109501;-81
2021/12/06 09:25:26;;;;;;;;;;;4.60;99.90;;;;;;7342853;19;111518;-83
2021/12/06 09:27:53;;;;;;;;;;;4.50;99.90;;;;;;7345372;19;115024;-80
2021/12/06 09:30:22;;;;;;;;;;;4.50;99.90;;;;;;7341284;19;109784;-81
2021/12/06 09:32:49;;;;;;;;;;;4.40;99.90;;;;;;7345428;19;113278;-82
2021/12/06 09:35:22;;;;;;;;;;;4.30;99.90;;;;;;7341038;19;112395;-80
2021/12/06 09:37:49;;;;;;;;;;;4.30;99.90;;;;;;7345179;19;109958;-80
2021/12/06 09:40:16;;;;;;;;;;;4.30;99.90;;;;;;7338901;19;112109;-79
2021/12/06 09:42:44;;;;;;;;;;;4.30;99.90;;;;;;7344713;19;112069;-80
2021/12/06 09:45:16;;;;;;;;;;;4.40;99.90;;;;;;7339972;19;114376;-80
2021/12/06 09:47:50;;;;;;;;;;;4.50;99.90;;;;;;7341102;19;112415;-80
2021/12/06 09:50:23;;;;;;;;;;;4.50;99.90;;;;;;7342132;19;109320;-80
2021/12/06 09:52:56;;;;;;;;;;;4.50;99.90;;;;;;7344320;19;111208;-81
2021/12/06 09:55:24;;;;;;;;;;;4.40;99.90;;;;;;7343101;19;112163;-80
2021/12/06 09:57:51;;;;;;;;;;;4.30;99.90;;;;;;7341676;19;110220;-81
2021/12/06 10:00:20;;;;;;;;;;;4.20;99.90;;;;;;7344586;19;110954;-80
2021/12/06 10:02:47;;;;;;;;;;;4.20;99.90;;;;;;7338878;19;112283;-80
2021/12/06 10:05:14;;;;;;;;;;;4.10;99.90;;;;;;7346255;19;109425;-81
2021/12/06 10:07:41;;;;;;;;;;;4.10;99.90;;;;;;7345668;19;112981;-81
2021/12/06 10:10:09;;;;;;;;;;;4.20;99.90;;;;;;7346964;19;109354;-80
2021/12/06 10:12:36;;;;;;;;;;;4.10;99.90;;;;;;7347422;19;112749;-81
2021/12/06 10:15:04;;;;;;;;;;;4.10;99.90;;;;;;7348696;19;112742;-81
2021/12/06 10:17:32;;;;;;;;;;;4.20;99.90;;;;;;7349543;19;109244;-80
2021/12/06 10:19:59;;;;;;;;;;;4.10;99.90;;;;;;7347070;19;111680;-80
2021/12/06 10:22:27;;;;;;;;;;;4.10;99.90;;;;;;7349020;19;112326;-81
2021/12/06 10:24:55;;;;;;;;;;;4.10;99.90;;;;;;7347315;19;109355;-81
2021/12/06 10:27:24;;;;;;;;;;;4.00;99.90;;;;;;7355101;19;111286;-81
2021/12/06 10:29:53;;;;;;;;;;;4.10;99.90;;;;;;7345023;19;109338;-81
2021/12/06 10:32:22;;;;;;;;;;;4.10;99.90;;;;;;7350854;19;111250;-82
2021/12/06 10:34:56;;;;;;;;;;;4.10;99.90;;;;;;7345539;19;112060;-84
2021/12/06 10:37:42;;;;;;;;;;;4.10;99.90;;;;;;7349973;19;109373;-80
2021/12/06 10:40:11;;;;;;;;;;;4.10;99.90;;;;;;7348453;19;111221;-85
2021/12/06 10:42:39;;;;;;;;;;;4.10;99.90;;;;;;7350216;19;114635;-82
2021/12/06 10:45:17;;;;;;;;;;;4.20;99.90;;;;;;7350212;19;109497;-84
2021/12/06 10:48:03;;;;;;;;;;;4.20;99.90;;;;;;7350562;19;109480;-83
2021/12/06 10:50:30;;;;;;;;;;;4.10;99.90;;;;;;7356141;19;114219;-84
2021/12/06 10:52:59;;;;;;;;;;;4.10;99.90;;;;;;7349810;19;113406;-82
2021/12/06 10:55:28;;;;;;;;;;;4.10;99.90;;;;;;7350215;19;112374;-81
2021/12/06 10:57:57;;;;;;;;;;;4.10;99.90;;;;;;7349585;19;109678;-83
2021/12/06 11:00:44;;;;;;;;;;;4.10;99.90;;;;;;7351905;19;110179;-83
2021/12/06 11:03:29;;;;;;;;;;;4.20;99.90;;;;;;7345801;19;111807;-83
2021/12/06 11:06:01;;;;;;;;;;;4.20;99.90;;;;;;7348897;19;109404;-82
2021/12/06 11:08:29;;;;;;;;;;;4.30;99.90;;;;;;7346729;19;110826;-82
2021/12/06 11:10:59;;;;;;;;;;;4.30;99.90;;;;;;7350373;19;112017;-82
2021/12/06 11:13:28;;;;;;;;;;;4.30;99.90;;;;;;7355313;19;109521;-80
2021/12/06 11:16:07;;;;;;;;;;;4.30;99.90;;;;;;7345441;19;113104;-80
2021/12/06 11:18:35;;;;;;;;;;;4.30;99.90;;;;;;7350275;19;109471;-82
2021/12/06 11:21:03;;;;;;;;;;;4.30;99.90;;;;;;7347463;19;111172;-83
2021/12/06 11:23:30;;;;;;;;;;;4.40;99.90;;;;;;7347963;19;114955;-83
2021/12/06 11:26:01;;;;;;;;;;;4.40;99.90;;;;;;7347334;19;113996;-80
2021/12/06 11:28:30;;;;;;;;;;;4.50;99.90;;;;;;7348700;19;112817;-82
2021/12/06 11:31:04;;;;;;;;;;;4.50;99.90;;;;;;7343970;19;112282;-82
2021/12/06 11:33:33;;;;;;;;;;;4.50;99.90;;;;;;7352745;19;109450;-83
2021/12/06 11:36:02;;;;;;;;;;;4.50;99.90;;;;;;7347420;19;112054;-82
2021/12/06 11:38:30;;;;;;;;;;;4.60;99.90;;;;;;7347658;19;110072;-81
2021/12/06 11:40:58;;;;;;;;;;;4.60;99.90;;;;;;7344967;19;111663;-83
2021/12/06 11:43:25;;;;;;;;;;;4.60;99.90;;;;;;7348424;19;111780;-83
2021/12/06 11:45:56;;;;;;;;;;;4.70;99.90;;;;;;7347239;19;109975;-82
2021/12/06 11:48:30;;;;;;;;;;;4.80;99.90;;;;;;7348518;19;111317;-83
2021/12/06 11:51:03;;;;;;;;;;;4.80;99.90;;;;;;7346171;19;112593;-81
2021/12/06 11:53:35;;;;;;;;;;;4.90;99.90;;;;;;7348464;19;109490;-81
2021/12/06 11:56:08;;;;;;;;;;;5.00;99.90;;;;;;7351670;19;110918;-83
2021/12/06 11:58:40;;;;;;;;;;;5.10;99.90;;;;;;7347355;19;110302;-81
2021/12/06 12:01:25;;;;;;;;;;;5.10;99.90;;;;;;7348078;19;111139;-80
2021/12/06 12:03:54;;;;;;;;;;;5.20;99.90;;;;;;7342609;19;111857;-80
2021/12/06 12:06:22;;;;;;;;;;;5.30;99.90;;;;;;7347709;19;109267;-83
2021/12/06 12:09:00;;;;;;;;;;;5.30;99.90;;;;;;7345251;19;109864;-84
2021/12/06 12:11:27;;;;;;;;;;;5.40;99.90;;;;;;7345345;19;111780;-84
2021/12/06 12:13:56;;;;;;;;;;;5.50;99.90;;;;;;7344930;19;109499;-83
2021/12/06 12:16:23;;;;;;;;;;;5.60;99.90;;;;;;7347720;19;111044;-81
2021/12/06 12:18:50;;;;;;;;;;;5.60;99.90;;;;;;7351513;19;111073;-84
2021/12/06 12:21:17;;;;;;;;;;;5.70;99.90;;;;;;7337762;19;110941;-81
2021/12/06 12:23:44;;;;;;;;;;;5.80;99.90;;;;;;7347672;19;112212;-83
2021/12/06 12:26:18;;;;;;;;;;;5.80;99.90;;;;;;7341049;19;109324;-81
2021/12/06 12:29:00;;;;;;;;;;;5.90;99.90;;;;;;7345773;19;110455;-86
2021/12/06 12:31:32;;;;;;;;;;;6.00;99.90;;;;;;7344320;19;114938;-83
2021/12/06 12:34:00;;;;;;;;;;;6.00;99.90;;;;;;7344531;19;109554;-81
2021/12/06 12:36:27;;;;;;;;;;;6.00;99.90;;;;;;7345026;19;113997;-82
2021/12/06 12:38:56;;;;;;;;;;;6.10;99.90;;;;;;7347923;19;113127;-81
2021/12/06 12:41:24;;;;;;;;;;;6.20;99.90;;;;;;7355283;19;109414;-85
2021/12/06 12:43:53;;;;;;;;;;;6.20;99.90;;;;;;7346024;19;111106;-82
2021/12/06 12:46:19;;;;;;;;;;;6.20;99.90;;;;;;7349194;19;109523;-83
2021/12/06 12:48:50;;;;;;;;;;;6.20;99.90;;;;;;7346154;19;114118;-81
2021/12/06 12:51:22;;;;;;;;;;;6.20;99.90;;;;;;7347703;19;113500;-84
2021/12/06 12:53:49;;;;;;;;;;;6.30;99.90;;;;;;7344133;19;109684;-85
2021/12/06 12:56:17;;;;;;;;;;;6.30;99.90;;;;;;7346118;19;111055;-81
2021/12/06 12:58:44;;;;;;;;;;;6.30;99.90;;;;;;7343213;19;115569;-82
2021/12/06 13:01:17;;;;;;;;;;;6.40;99.90;;;;;;7344522;19;109452;-85
2021/12/06 13:03:50;;;;;;;;;;;6.40;99.90;;;;;;7348274;19;111106;-83
2021/12/06 13:06:30;;;;;;;;;;;6.40;99.90;;;;;;7345492;19;109328;-83
2021/12/06 13:08:57;;;;;;;;;;;6.40;99.90;;;;;;7342845;19;112721;-80
2021/12/06 13:11:29;;;;;;;;;;;6.50;99.90;;;;;;7341636;19;110644;-84
2021/12/06 13:13:58;;;;;;;;;;;6.50;99.90;;;;;;7346208;19;109520;-83
2021/12/06 13:16:36;;;;;;;;;;;6.50;99.90;;;;;;7343090;19;110649;-83
2021/12/06 13:19:20;;;;;;;;;;;6.40;99.90;;;;;;7344889;19;115644;-84
2021/12/06 13:21:52;;;;;;;;;;;6.40;99.90;;;;;;7343795;19;109383;-82
2021/12/06 13:24:19;;;;;;;;;;;6.40;99.90;;;;;;7344656;19;113048;-82
2021/12/06 13:26:47;;;;;;;;;;;6.40;99.90;;;;;;7351359;19;112098;-82
2021/12/06 13:29:16;;;;;;;;;;;6.30;99.90;;;;;;7344618;19;110985;-82
2021/12/06 13:31:43;;;;;;;;;;;6.30;99.90;;;;;;7343874;19;111730;-82
2021/12/06 13:34:20;;;;;;;;;;;6.40;99.90;;;;;;7341771;19;110734;-82
2021/12/06 13:36:50;;;;;;;;;;;6.30;99.90;;;;;;7345168;19;111285;-82
2021/12/06 13:39:29;;;;;;;;;;;6.30;99.90;;;;;;7344167;19;110709;-85
2021/12/06 13:42:00;;;;;;;;;;;6.40;99.90;;;;;;7352305;19;109928;-86
2021/12/06 13:44:45;;;;;;;;;;;6.40;99.90;;;;;;7349592;19;111448;-83
2021/12/06 13:47:14;;;;;;;;;;;6.40;99.90;;;;;;7354057;19;111979;-82
2021/12/06 13:49:56;;;;;;;;;;;6.30;99.90;;;;;;7350920;19;111238;-87
2021/12/06 13:52:33;;;;;;;;;;;6.30;99.90;;;;;;7349367;19;111922;-82
2021/12/06 13:55:00;;;;;;;;;;;6.30;99.90;;;;;;7352752;19;109299;-85
2021/12/06 13:57:28;;;;;;;;;;;6.30;99.90;;;;;;7346951;19;111368;-84
2021/12/06 13:59:57;;;;;;;;;;;6.30;99.90;;;;;;7350947;19;110454;-85
2021/12/06 14:02:27;;;;;;;;;;;6.30;99.90;;;;;;7350270;19;109534;-83
2021/12/06 14:04:56;;;;;;;;;;;6.30;99.90;;;;;;7352607;19;110038;-83
2021/12/06 14:07:25;;;;;;;;;;;6.30;99.90;;;;;;7348198;19;110633;-82
2021/12/06 14:09:55;;;;;;;;;;;6.30;99.90;;;;;;7353222;19;110747;-83
2021/12/06 14:12:26;;;;;;;;;;;6.30;99.90;;;;;;7349742;19;112203;-85
2021/12/06 14:14:56;;;;;;;;;;;6.30;99.90;;;;;;7350579;19;109516;-82
2021/12/06 14:17:23;;;;;;;;;;;6.20;99.90;;;;;;7350188;19;111989;-82
2021/12/06 14:19:50;;;;;;;;;;;6.20;99.90;;;;;;7348772;19;110673;-83
2021/12/06 14:22:20;;;;;;;;;;;6.20;99.90;;;;;;7350886;19;109524;-84
2021/12/06 14:24:47;;;;;;;;;;;6.20;99.90;;;;;;7347975;19;111071;-85
2021/12/06 14:27:15;;;;;;;;;;;6.20;99.90;;;;;;7352404;19;113029;-82
2021/12/06 14:29:48;;;;;;;;;;;6.20;99.90;;;;;;7345423;19;109601;-84
2021/12/06 14:32:15;;;;;;;;;;;6.20;99.90;;;;;;7357244;19;109622;-82
2021/12/06 14:34:42;;;;;;;;;;;6.20;99.90;;;;;;7346413;19;110168;-82
2021/12/06 14:37:13;;;;;;;;;;;6.20;99.90;;;;;;7351061;19;113879;-83
2021/12/06 14:39:41;;;;;;;;;;;6.10;99.90;;;;;;7345426;19;112628;-83